createdAt,value
2019-03-28T00:00:14.420Z,1026.50
2019-03-28T00:01:12.105Z,1026.45
2019-03-28T00:02:14.242Z,1026.50
2019-03-28T00:03:12.038Z,1026.47
2019-03-28T00:05:11.977Z,1026.50
2019-03-28T00:07:11.942Z,1026.52
2019-03-28T00:08:12.634Z,1026.48
2019-03-28T00:09:11.873Z,1026.50
2019-03-28T00:10:12.921Z,1026.43
2019-03-28T00:11:11.917Z,1026.48
2019-03-28T00:12:11.798Z,1026.47
2019-03-28T00:13:12.852Z,1026.49
2019-03-28T00:14:11.720Z,1026.51
2019-03-28T00:15:11.730Z,1026.50
2019-03-28T00:16:11.655Z,1026.47
2019-03-28T00:17:13.703Z,1026.55
2019-03-28T00:18:11.605Z,1026.54
2019-03-28T00:19:11.667Z,1026.54
2019-03-28T00:20:11.568Z,1026.56
2019-03-28T00:21:11.527Z,1026.52
2019-03-28T00:22:11.508Z,1026.56
2019-03-28T00:23:12.554Z,1026.59
2019-03-28T00:24:11.424Z,1026.56
2019-03-28T00:25:11.446Z,1026.56
2019-03-28T00:26:11.386Z,1026.56
2019-03-28T00:27:18.035Z,1026.55
2019-03-28T00:28:11.455Z,1026.55
2019-03-28T00:29:11.374Z,1026.53
2019-03-28T00:30:11.266Z,1026.56
2019-03-28T00:31:19.091Z,1026.56
2019-03-28T00:32:11.215Z,1026.53
2019-03-28T00:33:11.244Z,1026.55
2019-03-28T00:34:11.150Z,1026.57
2019-03-28T00:35:11.222Z,1026.57
2019-03-28T00:36:11.100Z,1026.57
2019-03-28T00:37:13.172Z,1026.60
2019-03-28T00:38:11.038Z,1026.60
2019-03-28T00:39:28.049Z,1026.62
2019-03-28T00:40:11.051Z,1026.62
2019-03-28T00:41:11.161Z,1026.65
2019-03-28T00:42:10.920Z,1026.64
2019-03-28T00:43:25.501Z,1026.63
2019-03-28T00:44:10.854Z,1026.60
2019-03-28T00:45:25.526Z,1026.60
2019-03-28T00:46:10.798Z,1026.61
2019-03-28T00:47:26.493Z,1026.59
2019-03-28T00:48:10.731Z,1026.58
2019-03-28T00:49:10.730Z,1026.55
2019-03-28T00:50:10.694Z,1026.59
2019-03-28T00:51:10.740Z,1026.55
2019-03-28T00:52:10.618Z,1026.53
2019-03-28T00:53:10.685Z,1026.53
2019-03-28T00:54:10.575Z,1026.55
2019-03-28T00:55:18.510Z,1026.54
2019-03-28T00:56:10.549Z,1026.51
2019-03-28T00:57:19.194Z,1026.54
2019-03-28T00:58:10.444Z,1026.48
2019-03-28T01:00:10.414Z,1026.53
2019-03-28T01:01:10.481Z,1026.50
2019-03-28T01:02:10.343Z,1026.47
2019-03-28T01:03:11.425Z,1026.49
2019-03-28T01:04:10.267Z,1026.49
2019-03-28T01:05:10.311Z,1026.43
2019-03-28T01:06:10.220Z,1026.43
2019-03-28T01:07:10.303Z,1026.42
2019-03-28T01:08:10.168Z,1026.45
2019-03-28T01:10:10.108Z,1026.50
2019-03-28T01:11:11.156Z,1026.46
2019-03-28T01:12:10.070Z,1026.45
2019-03-28T01:13:10.149Z,1026.46
2019-03-28T01:14:10.003Z,1026.44
2019-03-28T01:15:10.063Z,1026.43
2019-03-28T01:16:09.952Z,1026.43
2019-03-28T01:17:17.549Z,1026.42
2019-03-28T01:18:09.880Z,1026.40
2019-03-28T01:19:11.915Z,1026.40
2019-03-28T01:20:09.816Z,1026.40
2019-03-28T01:21:09.815Z,1026.39
2019-03-28T01:22:17.576Z,1026.39
2019-03-28T01:23:09.751Z,1026.38
2019-03-28T01:24:16.564Z,1026.37
2019-03-28T01:25:09.702Z,1026.37
2019-03-28T01:26:11.776Z,1026.39
2019-03-28T01:27:09.617Z,1026.36
2019-03-28T01:28:09.621Z,1026.35
2019-03-28T01:29:09.586Z,1026.36
2019-03-28T01:30:09.608Z,1026.39
2019-03-28T01:31:10.235Z,1026.36
2019-03-28T01:32:09.627Z,1026.40
2019-03-28T01:33:09.443Z,1026.34
2019-03-28T01:34:09.430Z,1026.37
2019-03-28T01:35:09.413Z,1026.36
2019-03-28T01:36:17.164Z,1026.35
2019-03-28T01:37:09.334Z,1026.35
2019-03-28T01:38:16.072Z,1026.35
2019-03-28T01:39:09.783Z,1026.37
2019-03-28T01:40:26.285Z,1026.39
2019-03-28T01:41:09.224Z,1026.36
2019-03-28T01:42:10.291Z,1026.39
2019-03-28T01:43:09.165Z,1026.35
2019-03-28T01:45:09.168Z,1026.34
2019-03-28T01:46:26.035Z,1026.38
2019-03-28T01:47:09.034Z,1026.30
2019-03-28T01:48:09.108Z,1026.32
2019-03-28T01:49:09.007Z,1026.32
2019-03-28T01:50:25.550Z,1026.29
2019-03-28T01:51:08.918Z,1026.31
2019-03-28T01:52:24.574Z,1026.29
2019-03-28T01:53:08.861Z,1026.26
2019-03-28T01:54:10.864Z,1026.28
2019-03-28T01:55:08.794Z,1026.27
2019-03-28T01:56:08.781Z,1026.26
2019-03-28T01:57:11.087Z,1026.29
2019-03-28T01:58:17.541Z,1026.30
2019-03-28T01:59:08.678Z,1026.32
2019-03-28T02:00:09.766Z,1026.32
2019-03-28T02:01:08.627Z,1026.27
2019-03-28T02:02:15.532Z,1026.29
2019-03-28T02:03:08.626Z,1026.31
2019-03-28T02:04:29.538Z,1026.33
2019-03-28T02:05:08.512Z,1026.27
2019-03-28T02:06:09.214Z,1026.26
2019-03-28T02:07:17.102Z,1026.32
2019-03-28T02:08:08.424Z,1026.28
2019-03-28T02:09:08.427Z,1026.31
2019-03-28T02:10:23.153Z,1026.33
2019-03-28T02:11:08.353Z,1026.34
2019-03-28T02:12:09.351Z,1026.35
2019-03-28T02:13:08.330Z,1026.34
2019-03-28T02:14:10.295Z,1026.36
2019-03-28T02:15:08.232Z,1026.37
2019-03-28T02:16:10.322Z,1026.37
2019-03-28T02:17:08.187Z,1026.35
2019-03-28T02:18:10.258Z,1026.37
2019-03-28T02:19:08.102Z,1026.36
2019-03-28T02:20:14.991Z,1026.38
2019-03-28T02:21:09.575Z,1026.39
2019-03-28T02:22:08.067Z,1026.33
2019-03-28T02:23:07.981Z,1026.32
2019-03-28T02:24:07.967Z,1026.31
2019-03-28T02:25:07.934Z,1026.33
2019-03-28T02:26:07.990Z,1026.32
2019-03-28T02:27:07.885Z,1026.35
2019-03-28T02:28:07.927Z,1026.35
2019-03-28T02:29:07.825Z,1026.35
2019-03-28T02:30:07.829Z,1026.35
2019-03-28T02:31:07.783Z,1026.35
2019-03-28T02:32:07.872Z,1026.31
2019-03-28T02:33:07.716Z,1026.35
2019-03-28T02:34:07.723Z,1026.34
2019-03-28T02:35:07.671Z,1026.32
2019-03-28T02:36:07.609Z,1026.32
2019-03-28T02:37:07.665Z,1026.33
2019-03-28T02:38:07.548Z,1026.31
2019-03-28T02:39:07.540Z,1026.37
2019-03-28T02:40:07.508Z,1026.37
2019-03-28T02:41:08.653Z,1026.39
2019-03-28T02:42:07.436Z,1026.41
2019-03-28T02:43:07.417Z,1026.41
2019-03-28T02:44:07.526Z,1026.45
2019-03-28T02:45:07.387Z,1026.43
2019-03-28T02:46:07.419Z,1026.43
2019-03-28T02:47:07.305Z,1026.42
2019-03-28T02:48:07.286Z,1026.48
2019-03-28T02:49:07.232Z,1026.47
2019-03-28T02:50:07.318Z,1026.45
2019-03-28T02:51:07.196Z,1026.44
2019-03-28T02:52:08.246Z,1026.44
2019-03-28T02:53:07.153Z,1026.46
2019-03-28T02:54:07.158Z,1026.47
2019-03-28T02:55:07.055Z,1026.47
2019-03-28T02:56:22.015Z,1026.50
2019-03-28T02:57:07.796Z,1026.49
2019-03-28T02:58:07.116Z,1026.46
2019-03-28T02:59:06.954Z,1026.44
2019-03-28T03:00:08.014Z,1026.48
2019-03-28T03:01:06.937Z,1026.48
2019-03-28T03:02:07.900Z,1026.47
2019-03-28T03:03:06.835Z,1026.46
2019-03-28T03:04:08.847Z,1026.53
2019-03-28T03:05:06.775Z,1026.50
2019-03-28T03:06:15.621Z,1026.49
2019-03-28T03:07:06.737Z,1026.51
2019-03-28T04:02:28.548Z,1026.77
2019-03-28T04:04:50.002Z,1026.74
2019-03-28T04:05:41.993Z,1026.72
2019-03-28T04:06:42.061Z,1026.76
2019-03-28T04:07:41.927Z,1026.77
2019-03-28T04:08:41.965Z,1026.77
2019-03-28T04:09:41.893Z,1026.74
2019-03-28T04:10:41.860Z,1026.79
2019-03-28T04:11:49.500Z,1026.79
2019-03-28T04:12:41.792Z,1026.81
2019-03-28T04:13:42.857Z,1026.86
2019-03-28T04:14:41.780Z,1026.87
2019-03-28T04:15:41.744Z,1026.85
2019-03-28T04:16:41.686Z,1026.86
2019-03-28T04:17:57.525Z,1026.86
2019-03-28T04:18:41.647Z,1026.88
2019-03-28T04:19:41.595Z,1026.87
2019-03-28T04:20:41.562Z,1026.84
2019-03-28T04:21:41.554Z,1026.87
2019-03-28T04:22:41.585Z,1026.90
2019-03-28T04:23:58.500Z,1026.91
2019-03-28T04:24:41.455Z,1026.91
2019-03-28T04:26:41.390Z,1026.96
2019-03-28T04:27:49.004Z,1026.93
2019-03-28T04:28:41.329Z,1026.93
2019-03-28T04:30:41.265Z,1026.95
2019-03-28T04:31:41.332Z,1026.97
2019-03-28T04:32:41.220Z,1026.97
2019-03-28T04:34:41.160Z,1026.98
2019-03-28T04:36:41.219Z,1026.97
2019-03-28T04:37:42.115Z,1026.95
2019-03-28T04:38:41.092Z,1026.96
2019-03-28T04:39:49.055Z,1026.97
2019-03-28T04:40:40.971Z,1026.94
2019-03-28T04:41:49.585Z,1026.94
2019-03-28T04:42:40.953Z,1026.92
2019-03-28T04:43:56.084Z,1026.95
2019-03-28T04:44:40.873Z,1026.92
2019-03-28T04:45:56.468Z,1026.97
2019-03-28T04:46:40.821Z,1026.95
2019-03-28T04:47:40.844Z,1026.96
2019-03-28T04:48:40.749Z,1027.01
2019-03-28T04:49:40.799Z,1026.94
2019-03-28T04:50:40.696Z,1027.00
2019-03-28T04:51:42.727Z,1026.93
2019-03-28T04:52:40.636Z,1026.98
2019-03-28T04:53:42.645Z,1026.93
2019-03-28T04:54:40.593Z,1026.93
2019-03-28T04:55:42.610Z,1026.96
2019-03-28T04:56:40.517Z,1026.91
2019-03-28T04:58:01.500Z,1026.95
2019-03-28T04:58:44.690Z,1027.00
2019-03-28T04:59:41.354Z,1026.99
2019-03-28T05:00:46.993Z,1026.99
2019-03-28T05:01:40.435Z,1026.97
2019-03-28T05:02:49.046Z,1026.98
2019-03-28T05:03:40.312Z,1026.94
2019-03-28T05:05:40.248Z,1026.96
2019-03-28T05:06:40.226Z,1026.93
2019-03-28T05:07:47.074Z,1026.96
2019-03-28T05:08:40.171Z,1026.97
2019-03-28T05:09:56.011Z,1026.94
2019-03-28T05:10:40.108Z,1026.94
2019-03-28T05:12:40.042Z,1027.02
2019-03-28T05:13:41.131Z,1026.99
2019-03-28T05:14:40.389Z,1027.01
2019-03-28T05:16:16.555Z,1027.04
2019-03-28T05:16:39.941Z,1027.03
2019-03-28T05:17:40.387Z,1027.01
2019-03-28T05:18:54.537Z,1027.02
2019-03-28T05:19:39.855Z,1027.01
2019-03-28T05:21:39.825Z,1027.05
2019-03-28T05:22:40.866Z,1027.06
2019-03-28T05:23:40.474Z,1027.05
2019-03-28T05:24:39.853Z,1027.07
2019-03-28T05:25:39.688Z,1027.05
2019-03-28T05:26:39.638Z,1027.11
2019-03-28T05:27:39.608Z,1027.12
2019-03-28T05:29:39.558Z,1027.10
2019-03-28T05:31:00.540Z,1027.09
2019-03-28T05:31:39.507Z,1027.13
2019-03-28T05:32:39.463Z,1027.13
2019-03-28T05:33:42.388Z,1027.16
2019-03-28T05:34:39.405Z,1027.16
2019-03-28T06:09:01.867Z,1027.11
2019-03-28T06:10:00.387Z,1027.12
2019-03-28T06:11:08.968Z,1027.14
2019-03-28T06:12:00.148Z,1027.10
2019-03-28T06:13:00.130Z,1027.13
2019-03-28T06:14:00.057Z,1027.11
2019-03-28T06:15:00.384Z,1027.11
2019-03-28T06:16:00.012Z,1027.14
2019-03-28T06:17:00.058Z,1027.15
2019-03-28T06:17:59.944Z,1027.16
2019-03-28T06:18:59.969Z,1027.18
2019-03-28T06:19:59.891Z,1027.16
2019-03-28T06:20:59.978Z,1027.23
2019-03-28T06:21:59.825Z,1027.20
2019-03-28T06:22:59.898Z,1027.20
2019-03-28T06:23:59.774Z,1027.21
2019-03-28T06:24:59.809Z,1027.24
2019-03-28T06:25:59.716Z,1027.23
2019-03-28T06:26:59.720Z,1027.22
2019-03-28T06:27:59.654Z,1027.22
2019-03-28T06:28:59.726Z,1027.22
2019-03-28T06:30:02.066Z,1027.21
2019-03-28T06:30:59.637Z,1027.24
2019-03-28T06:31:59.536Z,1027.24
2019-03-28T06:32:59.563Z,1027.24
2019-03-28T06:34:00.455Z,1027.22
2019-03-28T06:34:59.571Z,1027.27
2019-03-28T06:36:02.126Z,1027.23
2019-03-28T06:36:59.476Z,1027.24
2019-03-28T06:37:59.373Z,1027.18
2019-03-28T06:38:59.323Z,1027.19
2019-03-28T06:39:59.330Z,1027.20
2019-03-28T06:40:59.369Z,1027.12
2019-03-28T06:41:59.251Z,1027.13
2019-03-28T06:42:59.358Z,1027.09
2019-03-28T06:43:59.188Z,1027.14
2019-03-28T06:44:59.154Z,1027.18
2019-03-28T06:45:59.200Z,1027.21
2019-03-28T06:46:59.100Z,1027.25
2019-03-28T06:47:59.106Z,1027.27
2019-03-28T06:48:59.051Z,1027.31
2019-03-28T06:49:59.122Z,1027.27
2019-03-28T06:50:59.007Z,1027.32
2019-03-28T06:51:58.957Z,1027.32
2019-03-28T06:52:59.039Z,1027.33
2019-03-28T06:53:58.893Z,1027.33
2019-03-28T06:54:58.951Z,1027.33
2019-03-28T06:55:58.853Z,1027.32
2019-03-28T06:56:58.869Z,1027.34
2019-03-28T06:57:58.805Z,1027.37
2019-03-28T06:58:58.771Z,1027.35
2019-03-28T06:59:58.715Z,1027.43
2019-03-28T07:00:58.787Z,1027.40
2019-03-28T07:01:58.685Z,1027.37
2019-03-28T07:02:58.707Z,1027.48
2019-03-28T07:03:58.614Z,1027.45
2019-03-28T07:04:58.608Z,1027.48
2019-03-28T07:05:58.546Z,1027.44
2019-03-28T07:06:58.628Z,1027.48
2019-03-28T07:07:58.562Z,1027.51
2019-03-28T07:08:58.531Z,1027.56
2019-03-28T07:09:58.444Z,1027.57
2019-03-28T07:10:58.453Z,1027.61
2019-03-28T07:11:58.373Z,1027.59
2019-03-28T07:12:58.366Z,1027.63
2019-03-28T07:13:58.316Z,1027.67
2019-03-28T07:14:59.742Z,1027.64
2019-03-28T07:15:58.260Z,1027.63
2019-03-28T07:16:58.281Z,1027.61
2019-03-28T07:17:58.194Z,1027.64
2019-03-28T07:18:58.263Z,1027.62
2019-03-28T07:19:58.134Z,1027.68
2019-03-28T07:20:58.188Z,1027.67
2019-03-28T07:21:58.075Z,1027.70
2019-03-28T07:22:58.100Z,1027.65
2019-03-28T07:23:58.041Z,1027.66
2019-03-28T07:24:58.041Z,1027.65
2019-03-28T07:25:57.961Z,1027.62
2019-03-28T07:26:58.051Z,1027.66
2019-03-28T07:27:57.911Z,1027.65
2019-03-28T07:28:57.893Z,1027.66
2019-03-28T07:29:57.941Z,1027.69
2019-03-28T07:30:57.825Z,1027.76
2019-03-28T07:31:57.850Z,1027.75
2019-03-28T07:32:57.755Z,1027.83
2019-03-28T07:33:57.760Z,1027.80
2019-03-28T07:34:57.706Z,1027.80
2019-03-28T07:35:58.696Z,1027.81
2019-03-28T07:36:57.652Z,1027.82
2019-03-28T07:37:57.766Z,1027.79
2019-03-28T07:38:57.590Z,1027.83
2019-03-28T07:39:57.644Z,1027.85
2019-03-28T07:40:57.556Z,1027.82
2019-03-28T07:41:57.528Z,1027.77
2019-03-28T07:42:57.471Z,1027.79
2019-03-28T07:43:57.522Z,1027.79
2019-03-28T07:44:58.133Z,1027.80
2019-03-28T07:45:57.413Z,1027.78
2019-03-28T07:46:57.352Z,1027.80
2019-03-28T07:47:58.391Z,1027.80
2019-03-28T07:48:57.305Z,1027.79
2019-03-28T07:49:57.277Z,1027.82
2019-03-28T07:50:57.234Z,1027.82
2019-03-28T07:51:57.289Z,1027.79
2019-03-28T07:52:57.180Z,1027.80
2019-03-28T07:53:57.202Z,1027.79
2019-03-28T07:54:57.132Z,1027.76
2019-03-28T07:55:57.584Z,1027.79
2019-03-28T07:56:57.085Z,1027.78
2019-03-28T07:57:57.035Z,1027.80
2019-03-28T07:58:57.015Z,1027.81
2019-03-28T08:00:03.948Z,1027.78
2019-03-28T08:00:56.950Z,1027.80
2019-03-28T08:01:57.038Z,1027.80
2019-03-28T08:02:58.431Z,1027.83
2019-03-28T08:03:56.950Z,1027.80
2019-03-28T08:04:56.865Z,1027.78
2019-03-28T08:05:56.894Z,1027.81
2019-03-28T08:06:56.809Z,1027.82
2019-03-28T08:07:56.806Z,1027.83
2019-03-28T08:08:56.710Z,1027.81
2019-03-28T08:09:56.821Z,1027.76
2019-03-28T08:10:56.657Z,1027.81
2019-03-28T08:11:56.754Z,1027.75
2019-03-28T08:12:56.625Z,1027.76
2019-03-28T08:13:56.567Z,1027.76
2019-03-28T08:14:56.643Z,1027.71
2019-03-28T08:15:56.582Z,1027.72
2019-03-28T08:16:56.482Z,1027.74
2019-03-28T08:17:56.574Z,1027.74
2019-03-28T08:18:56.429Z,1027.70
2019-03-28T08:19:56.517Z,1027.70
2019-03-28T08:20:56.347Z,1027.70
2019-03-28T08:21:56.357Z,1027.65
2019-03-28T08:22:56.315Z,1027.64
2019-03-28T08:23:56.273Z,1027.65
2019-03-28T08:24:56.250Z,1027.65
2019-03-28T08:25:56.314Z,1027.67
2019-03-28T08:26:56.183Z,1027.69
2019-03-28T08:27:57.663Z,1027.67
2019-03-28T08:28:56.137Z,1027.73
2019-03-28T08:29:57.900Z,1027.76
2019-03-28T08:30:56.119Z,1027.78
2019-03-28T08:31:56.052Z,1027.79
2019-03-28T08:32:56.050Z,1027.77
2019-03-28T08:33:55.985Z,1027.79
2019-03-28T08:34:55.962Z,1027.82
2019-03-28T08:35:56.023Z,1027.75
2019-03-28T08:36:55.910Z,1027.73
2019-03-28T08:37:55.940Z,1027.72
2019-03-28T08:38:55.862Z,1027.71
2019-03-28T08:39:55.970Z,1027.70
2019-03-28T08:40:55.787Z,1027.72
2019-03-28T08:41:55.802Z,1027.73
2019-03-28T08:42:55.820Z,1027.72
2019-03-28T08:43:55.720Z,1027.75
2019-03-28T08:44:55.728Z,1027.73
2019-03-28T08:45:55.779Z,1027.76
2019-03-28T08:46:55.674Z,1027.80
2019-03-28T08:47:55.593Z,1027.81
2019-03-28T08:48:55.556Z,1027.81
2019-03-28T08:49:58.639Z,1027.80
2019-03-28T08:50:55.517Z,1027.86
2019-03-28T08:51:55.519Z,1027.86
2019-03-28T08:52:55.448Z,1027.89
2019-03-28T08:53:57.512Z,1027.90
2019-03-28T08:54:55.398Z,1027.90
2019-03-28T08:55:55.361Z,1027.89
2019-03-28T08:56:55.342Z,1027.88
2019-03-28T08:57:55.469Z,1027.85
2019-03-28T08:58:55.272Z,1027.89
2019-03-28T08:59:55.239Z,1027.89
2019-03-28T09:00:56.316Z,1027.87
2019-03-28T09:01:55.202Z,1027.89
2019-03-28T09:02:57.271Z,1027.92
2019-03-28T09:03:55.247Z,1027.92
2019-03-28T09:04:56.114Z,1027.95
2019-03-28T09:05:55.104Z,1028.01
2019-03-28T09:06:55.054Z,1028.06
2019-03-28T09:07:55.057Z,1028.04
2019-03-28T09:08:56.081Z,1028.04
2019-03-28T09:09:54.962Z,1028.01
2019-03-28T09:10:57.046Z,1028.04
2019-03-28T09:11:54.955Z,1027.99
2019-03-28T09:12:55.983Z,1027.98
2019-03-28T09:13:54.840Z,1028.02
2019-03-28T09:14:56.837Z,1028.06
2019-03-28T09:15:54.804Z,1028.05
2019-03-28T09:17:03.511Z,1028.08
2019-03-28T09:17:54.725Z,1028.11
2019-03-28T09:18:56.740Z,1028.12
2019-03-28T09:19:54.693Z,1028.15
2019-03-28T09:20:56.762Z,1028.12
2019-03-28T09:21:54.605Z,1028.13
2019-03-28T09:22:55.667Z,1028.14
2019-03-28T09:23:54.546Z,1028.13
2019-03-28T09:24:55.618Z,1028.14
2019-03-28T09:25:54.533Z,1028.15
2019-03-28T09:26:54.619Z,1028.17
2019-03-28T09:27:54.446Z,1028.18
2019-03-28T09:28:55.552Z,1028.17
2019-03-28T09:29:54.500Z,1028.17
2019-03-28T09:30:54.478Z,1028.17
2019-03-28T09:31:54.417Z,1028.14
2019-03-28T09:32:54.413Z,1028.09
2019-03-28T09:33:54.314Z,1028.10
2019-03-28T09:34:54.416Z,1028.12
2019-03-28T09:35:54.293Z,1028.06
2019-03-28T09:36:55.222Z,1028.07
2019-03-28T09:37:54.234Z,1028.06
2019-03-28T09:39:03.024Z,1028.06
2019-03-28T09:39:54.077Z,1028.09
2019-03-28T09:41:08.966Z,1028.06
2019-03-28T09:41:54.056Z,1028.09
2019-03-28T09:42:53.998Z,1028.08
2019-03-28T09:43:55.733Z,1028.08
2019-03-28T09:44:54.038Z,1028.05
2019-03-28T09:45:53.962Z,1028.05
2019-03-28T09:46:53.934Z,1028.07
2019-03-28T09:47:53.852Z,1028.08
2019-03-28T09:49:53.838Z,1028.05
2019-03-28T09:50:53.835Z,1028.07
2019-03-28T09:51:53.820Z,1028.05
2019-03-28T09:52:53.766Z,1028.09
2019-03-28T09:53:53.682Z,1028.06
2019-03-28T09:54:55.780Z,1028.07
2019-03-28T09:55:53.631Z,1028.04
2019-03-28T09:56:55.651Z,1028.07
2019-03-28T09:57:53.580Z,1028.03
2019-03-28T09:59:10.429Z,1028.02
2019-03-28T09:59:53.538Z,1028.01
2019-03-28T10:01:02.741Z,1028.02
2019-03-28T10:01:53.455Z,1028.05
2019-03-28T10:03:53.423Z,1028.04
2019-03-28T10:04:55.468Z,1028.03
2019-03-28T10:05:53.389Z,1027.97
2019-03-28T10:07:08.009Z,1027.99
2019-03-28T10:07:53.349Z,1028.03
2019-03-28T10:09:08.042Z,1028.01
2019-03-28T10:09:53.538Z,1028.01
2019-03-28T10:10:53.306Z,1028.00
2019-03-28T10:11:53.198Z,1028.02
2019-03-28T10:12:53.157Z,1028.04
2019-03-28T10:13:53.221Z,1028.04
2019-03-28T10:14:53.109Z,1028.02
2019-03-28T10:15:53.069Z,1027.98
2019-03-28T10:16:53.059Z,1027.99
2019-03-28T10:17:53.149Z,1027.99
2019-03-28T10:18:53.061Z,1027.97
2019-03-28T10:19:53.044Z,1027.99
2019-03-28T10:20:52.927Z,1027.97
2019-03-28T10:21:52.956Z,1027.99
2019-03-28T10:22:52.875Z,1027.91
2019-03-28T10:23:52.963Z,1027.95
2019-03-28T10:24:52.835Z,1027.97
2019-03-28T10:25:52.817Z,1027.97
2019-03-28T10:26:52.912Z,1028.02
2019-03-28T10:27:52.754Z,1027.98
2019-03-28T10:28:52.732Z,1027.98
2019-03-28T10:29:52.675Z,1027.94
2019-03-28T10:30:52.671Z,1027.97
2019-03-28T10:31:52.619Z,1028.03
2019-03-28T10:32:53.610Z,1027.98
2019-03-28T10:33:52.588Z,1028.00
2019-03-28T10:34:52.533Z,1028.02
2019-03-28T10:35:52.588Z,1028.07
2019-03-28T10:37:08.438Z,1028.04
2019-03-28T10:37:52.490Z,1028.07
2019-03-28T10:38:52.445Z,1028.03
2019-03-28T10:39:52.402Z,1028.05
2019-03-28T10:40:52.384Z,1028.03
2019-03-28T10:41:52.412Z,1028.08
2019-03-28T10:42:53.350Z,1028.01
2019-03-28T10:43:52.293Z,1028.04
2019-03-28T10:44:54.346Z,1028.06
2019-03-28T10:45:52.266Z,1028.03
2019-03-28T10:46:52.232Z,1028.04
2019-03-28T10:47:52.203Z,1028.07
2019-03-28T10:48:54.439Z,1027.99
2019-03-28T10:49:52.143Z,1028.01
2019-03-28T10:50:52.114Z,1028.00
2019-03-28T10:51:52.150Z,1028.00
2019-03-28T10:52:52.052Z,1028.01
2019-03-28T10:53:52.096Z,1027.97
2019-03-28T10:54:52.153Z,1027.97
2019-03-28T10:55:52.230Z,1028.03
2019-03-28T10:56:53.729Z,1027.97
2019-03-28T10:57:52.179Z,1028.00
2019-03-28T10:58:51.878Z,1027.99
2019-03-28T10:59:51.908Z,1027.96
2019-03-28T11:00:54.602Z,1027.97
2019-03-28T11:01:51.823Z,1027.97
2019-03-28T11:02:51.793Z,1027.92
2019-03-28T11:03:51.831Z,1027.93
2019-03-28T11:04:51.727Z,1027.93
2019-03-28T11:05:51.949Z,1027.91
2019-03-28T11:06:51.628Z,1027.91
2019-03-28T11:07:51.760Z,1027.93
2019-03-28T11:08:51.597Z,1027.92
2019-03-28T11:09:51.544Z,1027.98
2019-03-28T11:10:51.695Z,1027.98
2019-03-28T11:11:51.517Z,1028.00
2019-03-28T11:12:51.499Z,1027.98
2019-03-28T11:13:51.449Z,1027.98
2019-03-28T11:14:51.454Z,1027.99
2019-03-28T11:15:51.415Z,1027.99
2019-03-28T11:16:51.410Z,1027.99
2019-03-28T11:17:51.322Z,1027.97
2019-03-28T11:18:51.309Z,1027.97
2019-03-28T11:19:51.283Z,1027.94
2019-03-28T11:20:51.243Z,1027.98
2019-03-28T11:21:51.232Z,1027.90
2019-03-28T11:22:51.274Z,1027.95
2019-03-28T11:23:51.155Z,1027.89
2019-03-28T11:24:51.153Z,1027.90
2019-03-28T11:25:51.145Z,1027.93
2019-03-28T11:26:51.264Z,1027.93
2019-03-28T11:27:51.079Z,1027.98
2019-03-28T11:28:51.022Z,1027.94
2019-03-28T11:29:51.111Z,1027.98
2019-03-28T11:30:51.522Z,1027.95
2019-03-28T11:31:52.471Z,1027.99
2019-03-28T11:32:50.917Z,1027.98
2019-03-28T11:33:50.887Z,1028.00
2019-03-28T11:34:50.859Z,1028.00
2019-03-28T11:35:50.829Z,1027.99
2019-03-28T11:36:50.801Z,1027.99
2019-03-28T11:37:50.972Z,1027.99
2019-03-28T11:38:50.748Z,1028.00
2019-03-28T11:39:50.708Z,1027.96
2019-03-28T11:40:50.754Z,1027.99
2019-03-28T11:41:50.723Z,1027.99
2019-03-28T11:42:51.967Z,1027.98
2019-03-28T11:43:50.635Z,1027.95
2019-03-28T11:44:50.690Z,1027.93
2019-03-28T11:45:50.547Z,1028.02
2019-03-28T11:46:50.595Z,1027.94
2019-03-28T11:47:50.597Z,1028.03
2019-03-28T11:48:50.512Z,1027.99
2019-03-28T11:49:50.446Z,1027.97
2019-03-28T11:50:50.436Z,1027.95
2019-03-28T11:51:50.383Z,1027.92
2019-03-28T11:52:50.441Z,1027.90
2019-03-28T11:53:50.335Z,1027.90
2019-03-28T11:54:50.424Z,1027.92
2019-03-28T11:55:50.263Z,1027.92
2019-03-28T11:56:50.351Z,1027.94
2019-03-28T11:57:50.208Z,1027.96
2019-03-28T11:58:50.323Z,1027.97
2019-03-28T11:59:50.151Z,1027.95
2019-03-28T12:00:50.167Z,1027.97
2019-03-28T12:01:59.840Z,1027.91
2019-03-28T12:02:50.117Z,1027.93
2019-03-28T12:03:50.118Z,1027.91
2019-03-28T12:04:50.085Z,1027.97
2019-03-28T12:05:52.971Z,1027.94
2019-03-28T12:06:50.577Z,1027.94
2019-03-28T12:07:50.025Z,1027.98
2019-03-28T12:08:49.914Z,1027.98
2019-03-28T12:09:49.942Z,1027.98
2019-03-28T12:10:49.865Z,1027.93
2019-03-28T12:11:52.787Z,1027.95
2019-03-28T12:12:49.805Z,1027.95
2019-03-28T12:13:49.856Z,1027.91
2019-03-28T12:14:49.746Z,1027.88
2019-03-28T12:15:50.866Z,1027.88
2019-03-28T12:16:49.665Z,1027.91
2019-03-28T12:17:49.682Z,1027.88
2019-03-28T12:18:49.621Z,1027.91
2019-03-28T12:19:49.603Z,1027.87
2019-03-28T12:20:49.585Z,1027.91
2019-03-28T12:21:49.548Z,1027.88
2019-03-28T12:22:49.534Z,1027.87
2019-03-28T12:23:49.493Z,1027.89
2019-03-28T12:24:49.475Z,1027.90
2019-03-28T12:25:49.442Z,1027.94
2019-03-28T12:26:49.405Z,1027.94
2019-03-28T12:27:49.468Z,1027.94
2019-03-28T12:28:49.341Z,1027.92
2019-03-28T12:29:49.894Z,1027.92
2019-03-28T12:30:49.314Z,1027.90
2019-03-28T12:31:49.321Z,1027.92
2019-03-28T12:32:49.338Z,1027.89
2019-03-28T12:33:49.403Z,1027.90
2019-03-28T12:34:49.415Z,1027.88
2019-03-28T12:35:49.441Z,1027.90
2019-03-28T12:36:49.436Z,1027.86
2019-03-28T12:37:49.431Z,1027.90
2019-03-28T12:38:49.151Z,1027.90
2019-03-28T12:39:49.013Z,1027.85
2019-03-28T12:40:49.004Z,1027.86
2019-03-28T12:41:48.971Z,1027.86
2019-03-28T12:42:48.943Z,1027.87
2019-03-28T12:43:48.909Z,1027.83
2019-03-28T12:44:56.924Z,1027.81
2019-03-28T12:45:48.907Z,1027.79
2019-03-28T12:46:48.868Z,1027.82
2019-03-28T12:47:48.828Z,1027.80
2019-03-28T12:48:48.816Z,1027.80
2019-03-28T12:49:48.829Z,1027.79
2019-03-28T12:50:58.251Z,1027.76
2019-03-28T12:51:48.718Z,1027.75
2019-03-28T12:52:48.684Z,1027.78
2019-03-28T12:53:48.786Z,1027.73
2019-03-28T12:54:48.623Z,1027.78
2019-03-28T12:55:48.610Z,1027.77
2019-03-28T12:56:48.565Z,1027.77
2019-03-28T12:57:48.708Z,1027.81
2019-03-28T12:58:48.652Z,1027.76
2019-03-28T12:59:48.478Z,1027.81
2019-03-28T13:00:48.434Z,1027.83
2019-03-28T13:01:48.440Z,1027.81
2019-03-28T13:02:48.397Z,1027.80
2019-03-28T13:03:48.376Z,1027.82
2019-03-28T13:04:48.343Z,1027.83
2019-03-28T13:05:48.336Z,1027.84
2019-03-28T13:06:48.295Z,1027.76
2019-03-28T13:07:48.318Z,1027.76
2019-03-28T13:08:48.202Z,1027.79
2019-03-28T13:09:48.208Z,1027.77
2019-03-28T13:10:48.166Z,1027.68
2019-03-28T13:11:48.207Z,1027.74
2019-03-28T13:12:48.146Z,1027.72
2019-03-28T13:13:48.098Z,1027.69
2019-03-28T13:14:48.082Z,1027.71
2019-03-28T13:15:48.085Z,1027.67
2019-03-28T13:16:48.048Z,1027.69
2019-03-28T13:17:47.992Z,1027.71
2019-03-28T13:18:48.092Z,1027.71
2019-03-28T13:19:47.918Z,1027.67
2019-03-28T13:20:47.927Z,1027.69
2019-03-28T13:21:47.845Z,1027.68
2019-03-28T13:22:47.937Z,1027.65
2019-03-28T13:23:47.806Z,1027.65
2019-03-28T13:24:47.772Z,1027.64
2019-03-28T13:25:47.734Z,1027.64
2019-03-28T13:26:47.728Z,1027.63
2019-03-28T13:27:47.691Z,1027.61
2019-03-28T13:28:47.663Z,1027.66
2019-03-28T13:29:47.644Z,1027.64
2019-03-28T13:30:47.630Z,1027.68
2019-03-28T13:31:47.635Z,1027.68
2019-03-28T13:32:47.548Z,1027.64
2019-03-28T13:33:47.546Z,1027.63
2019-03-28T13:34:47.512Z,1027.61
2019-03-28T13:35:47.503Z,1027.64
2019-03-28T13:36:47.458Z,1027.62
2019-03-28T13:37:48.552Z,1027.65
2019-03-28T13:38:47.381Z,1027.64
2019-03-28T13:39:47.358Z,1027.65
2019-03-28T13:40:47.312Z,1027.62
2019-03-28T13:41:47.421Z,1027.60
2019-03-28T13:42:47.272Z,1027.60
2019-03-28T13:43:47.309Z,1027.60
2019-03-28T13:44:47.245Z,1027.59
2019-03-28T13:45:47.181Z,1027.61
2019-03-28T13:46:47.171Z,1027.60
2019-03-28T13:47:47.144Z,1027.55
2019-03-28T13:48:47.093Z,1027.59